Time;durP1;ratioP1;P1;durP2;ratioP2;P2;SDS_P1;SDS_P2;PMS_P1;PMS_P2;Temp;Humidity;BMP_temperature;BMP_pressure;BME280_temperature;BME280_humidity;BME280_pressure;Samples;Min_cycle;Max_cycle;Signal;HPM_P1;HPM_P2
2024/03/30 00:00:56;;;;;;;3.40;3.07;;;9.70;99.90;;;;;;5096988;28;20463;-64
2024/03/30 00:03:23;;;;;;;4.70;2.90;;;9.70;1.00;;;;;;5097373;28;20773;-64
2024/03/30 00:06:00;;;;;;;4.57;3.50;;;9.70;1.00;;;;;;5097119;28;20456;-63
2024/03/30 00:08:27;;;;;;;3.30;2.97;;;9.70;8.10;;;;;;5097261;28;20464;-63
2024/03/30 00:11:00;;;;;;;4.57;4.10;;;9.70;99.90;;;;;;5096781;28;20495;-63
2024/03/30 00:13:28;;;;;;;4.67;3.37;;;9.70;99.90;;;;;;5097401;28;20456;-64
2024/03/30 00:15:56;;;;;;;7.63;4.60;;;9.70;1.00;;;;;;5096526;28;20460;-64
2024/03/30 00:18:23;;;;;;;4.70;3.90;;;9.70;99.90;;;;;;5098442;28;20506;-66
2024/03/30 00:20:51;;;;;;;5.77;4.10;;;9.70;81.10;;;;;;5100730;28;20542;-64
2024/03/30 00:23:17;;;;;;;8.20;4.10;;;9.60;2.70;;;;;;5100525;28;20488;-65
2024/03/30 00:25:53;;;;;;;5.20;3.90;;;9.60;1.00;;;;;;5101009;28;20908;-66
2024/03/30 00:28:19;;;;;;;4.37;3.77;;;9.70;99.90;;;;;;5100373;28;20459;-66
2024/03/30 00:30:48;;;;;;;5.50;4.33;;;9.70;99.90;;;;;;5100841;28;20514;-65
2024/03/30 00:33:15;;;;;;;5.70;4.00;;;9.60;99.90;;;;;;5100620;28;20551;-65
2024/03/30 00:35:42;;;;;;;4.27;3.20;;;9.70;99.90;;;;;;5100886;28;20878;-65
2024/03/30 00:38:09;;;;;;;4.30;3.83;;;9.70;1.00;;;;;;5100207;28;20464;-65
2024/03/30 00:40:37;;;;;;;4.40;3.80;;;9.70;1.00;;;;;;5100430;28;20905;-65
2024/03/30 00:43:03;;;;;;;3.60;3.23;;;9.60;1.00;;;;;;5099711;28;20492;-65
2024/03/30 00:45:31;;;;;;;3.80;3.00;;;9.60;1.00;;;;;;5100502;28;20460;-66
2024/03/30 00:47:59;;;;;;;4.80;3.50;;;9.60;1.00;;;;;;5099954;28;20483;-65
2024/03/30 00:50:26;;;;;;;4.40;3.43;;;9.60;1.00;;;;;;5100212;28;20517;-65
2024/03/30 00:52:52;;;;;;;4.10;3.60;;;9.60;1.00;;;;;;5100137;28;20456;-66
2024/03/30 00:55:20;;;;;;;4.90;3.50;;;9.60;1.00;;;;;;5077211;28;20466;-66
2024/03/30 00:57:46;;;;;;;4.80;3.80;;;9.60;1.00;;;;;;5080021;28;20510;-67
2024/03/30 01:00:14;;;;;;;3.60;3.20;;;9.60;1.00;;;;;;5079892;28;20461;-68
2024/03/30 01:02:41;;;;;;;5.43;4.10;;;9.60;1.00;;;;;;5079740;28;20467;-66
2024/03/30 01:05:10;;;;;;;4.97;3.47;;;9.60;1.00;;;;;;5079842;28;20782;-66
2024/03/30 01:07:37;;;;;;;5.40;3.67;;;9.40;1.00;;;;;;5079625;28;20449;-65
2024/03/30 01:10:05;;;;;;;5.00;4.10;;;9.40;1.00;;;;;;5079180;28;20485;-64
2024/03/30 01:12:32;;;;;;;5.20;3.80;;;9.40;1.00;;;;;;5079242;28;20453;-66
2024/03/30 01:15:00;;;;;;;5.03;4.13;;;9.40;1.00;;;;;;5079518;28;20453;-66
2024/03/30 01:17:27;;;;;;;4.67;4.10;;;9.40;1.00;;;;;;5079289;28;20515;-66
2024/03/30 01:19:55;;;;;;;4.90;4.40;;;9.30;1.00;;;;;;5079614;28;20445;-65
2024/03/30 01:22:23;;;;;;;4.50;3.80;;;9.30;1.00;;;;;;5079322;28;20519;-66
2024/03/30 01:24:51;;;;;;;5.23;4.10;;;9.20;1.00;;;;;;5078861;28;20496;-66
2024/03/30 01:27:18;;;;;;;5.23;4.13;;;9.20;1.00;;;;;;5079160;28;20453;-65
2024/03/30 01:29:47;;;;;;;7.57;4.90;;;9.20;1.00;;;;;;5078230;28;20459;-66
2024/03/30 01:32:14;;;;;;;5.27;4.50;;;9.10;6.50;;;;;;5078914;28;20458;-67
2024/03/30 01:34:41;;;;;;;5.00;3.83;;;9.10;2.90;;;;;;5090846;28;20885;-65
2024/03/30 01:37:08;;;;;;;6.73;6.07;;;9.00;1.00;;;;;;5099165;28;20555;-65
2024/03/30 01:39:36;;;;;;;8.47;7.10;;;9.00;1.00;;;;;;5099429;28;20456;-66
2024/03/30 01:42:03;;;;;;;9.30;6.10;;;9.00;1.00;;;;;;5098678;28;20452;-66
2024/03/30 01:44:30;;;;;;;6.90;6.13;;;9.00;1.00;;;;;;5099239;28;20491;-66
2024/03/30 01:46:57;;;;;;;5.70;5.10;;;9.00;1.00;;;;;;5098789;28;20559;-66
2024/03/30 01:49:25;;;;;;;5.87;5.30;;;9.00;1.00;;;;;;5099037;28;20460;-66
2024/03/30 01:51:51;;;;;;;6.17;5.43;;;9.00;1.00;;;;;;5098552;28;20870;-66
2024/03/30 01:54:21;;;;;;;5.87;5.00;;;9.00;6.80;;;;;;5099046;28;20452;-66
2024/03/30 01:56:51;;;;;;;7.03;5.43;;;9.00;19.00;;;;;;5098719;28;20901;-66
2024/03/30 01:59:18;;;;;;;6.30;5.30;;;9.00;1.00;;;;;;5098936;28;20456;-66
2024/03/30 02:01:47;;;;;;;5.70;5.10;;;8.90;1.00;;;;;;5098702;28;20773;-64
2024/03/30 02:04:16;;;;;;;6.20;5.60;;;8.90;1.00;;;;;;5098704;28;20524;-66
2024/03/30 02:06:43;;;;;;;6.43;4.80;;;9.00;1.00;;;;;;5098061;28;20811;-65
2024/03/30 02:09:12;;;;;;;5.60;5.00;;;8.90;1.00;;;;;;5098325;28;20460;-66
2024/03/30 02:11:39;;;;;;;6.80;5.57;;;8.90;1.00;;;;;;5098103;28;20488;-66
2024/03/30 02:14:08;;;;;;;5.70;5.20;;;8.90;4.20;;;;;;5098499;28;20456;-65
2024/03/30 02:16:35;;;;;;;6.90;5.97;;;9.00;62.00;;;;;;5098348;28;20461;-65
2024/03/30 02:19:04;;;;;;;7.17;5.50;;;8.90;87.50;;;;;;5098360;28;20880;-66
2024/03/30 02:21:30;;;;;;;6.20;5.60;;;8.90;49.90;;;;;;5098367;28;20817;-67
2024/03/30 02:23:59;;;;;;;8.00;6.00;;;8.90;77.10;;;;;;5098224;28;20762;-66
2024/03/30 02:26:25;;;;;;;6.17;5.57;;;8.90;64.90;;;;;;5098381;28;20885;-66
2024/03/30 02:28:53;;;;;;;5.80;5.07;;;8.90;49.70;;;;;;5098425;28;20550;-66
2024/03/30 02:31:20;;;;;;;6.07;5.23;;;8.80;13.10;;;;;;5098391;28;20478;-66
2024/03/30 02:33:47;;;;;;;8.03;5.40;;;8.80;7.70;;;;;;5098355;28;20460;-66
2024/03/30 02:36:15;;;;;;;6.73;5.60;;;8.80;40.60;;;;;;5097702;28;20555;-66
2024/03/30 02:38:42;;;;;;;6.90;6.20;;;8.70;32.60;;;;;;5097848;28;20505;-66
2024/03/30 02:41:10;;;;;;;6.30;5.70;;;8.70;84.70;;;;;;5097378;28;20851;-65
2024/03/30 02:43:37;;;;;;;7.50;5.70;;;8.70;99.90;;;;;;5097941;28;20484;-66
2024/03/30 02:46:05;;;;;;;7.20;5.57;;;8.70;99.90;;;;;;5097723;28;20555;-65
2024/03/30 02:48:33;;;;;;;5.77;5.27;;;8.70;99.90;;;;;;5097986;28;20959;-66
2024/03/30 02:50:59;;;;;;;6.67;5.97;;;8.70;99.90;;;;;;5098060;28;20899;-66
2024/03/30 02:53:26;;;;;;;6.10;5.50;;;8.70;99.90;;;;;;5097931;28;20942;-66
2024/03/30 02:55:52;;;;;;;6.40;5.70;;;8.70;99.90;;;;;;5098198;28;20547;-66
2024/03/30 02:58:21;;;;;;;7.37;6.07;;;8.70;99.90;;;;;;5097768;28;20461;-66
2024/03/30 03:00:47;;;;;;;6.70;6.00;;;8.70;99.90;;;;;;5097730;28;20509;-65
2024/03/30 03:03:15;;;;;;;8.97;6.60;;;8.70;99.90;;;;;;5097872;28;20551;-66
2024/03/30 03:05:41;;;;;;;6.93;6.03;;;8.70;99.90;;;;;;5097644;28;20457;-66
2024/03/30 03:08:08;;;;;;;6.93;5.80;;;8.60;99.90;;;;;;5097882;28;20597;-66
2024/03/30 03:10:34;;;;;;;8.33;6.00;;;8.50;99.90;;;;;;5097213;28;20506;-66
2024/03/30 03:13:02;;;;;;;6.60;5.73;;;8.50;99.90;;;;;;5097604;28;20877;-66
2024/03/30 03:15:29;;;;;;;6.17;5.50;;;8.50;99.90;;;;;;5097888;28;20799;-66
2024/03/30 03:17:57;;;;;;;6.03;5.17;;;8.50;99.90;;;;;;5097431;28;20885;-66
2024/03/30 03:20:23;;;;;;;6.70;6.00;;;8.50;99.90;;;;;;5097104;28;20470;-66
2024/03/30 03:22:50;;;;;;;6.60;5.83;;;8.50;99.90;;;;;;5097783;28;20751;-65
2024/03/30 03:25:17;;;;;;;6.07;5.47;;;8.50;99.90;;;;;;5097396;28;20583;-66
2024/03/30 03:27:44;;;;;;;7.10;6.13;;;8.50;99.90;;;;;;5097164;28;20886;-66
2024/03/30 03:30:11;;;;;;;7.13;5.90;;;8.50;99.90;;;;;;5097195;28;20499;-66
2024/03/30 03:32:39;;;;;;;6.90;6.30;;;8.50;99.90;;;;;;5097144;28;20526;-66
2024/03/30 03:35:06;;;;;;;6.83;6.13;;;8.50;99.90;;;;;;5097491;28;20495;-67
2024/03/30 03:37:33;;;;;;;6.80;6.13;;;8.50;99.90;;;;;;5097265;28;20456;-66
2024/03/30 03:39:59;;;;;;;6.70;6.10;;;8.50;99.90;;;;;;5096980;28;20744;-66
2024/03/30 03:42:26;;;;;;;6.80;6.20;;;8.40;99.90;;;;;;5097007;28;20455;-66
2024/03/30 03:44:53;;;;;;;6.70;6.10;;;8.30;99.90;;;;;;5097034;28;20850;-66
2024/03/30 03:47:20;;;;;;;7.90;6.70;;;8.30;99.90;;;;;;5097485;28;20461;-66
2024/03/30 03:49:47;;;;;;;6.37;5.57;;;8.20;99.90;;;;;;5097502;28;20496;-66
2024/03/30 03:52:15;;;;;;;7.70;6.50;;;8.20;99.90;;;;;;5097153;28;20456;-67
2024/03/30 03:54:41;;;;;;;8.57;6.87;;;8.20;99.90;;;;;;5100706;28;20484;-66
2024/03/30 03:57:08;;;;;;;9.60;8.67;;;8.20;99.90;;;;;;5101411;28;20464;-66
2024/03/30 03:59:34;;;;;;;10.70;9.23;;;8.20;99.90;;;;;;5101055;28;20873;-66
2024/03/30 04:02:02;;;;;;;10.03;9.03;;;8.20;99.90;;;;;;5101058;28;20499;-66
2024/03/30 04:04:28;;;;;;;9.63;8.60;;;8.20;99.90;;;;;;5101062;28;20921;-66
2024/03/30 04:06:59;;;;;;;10.70;9.60;;;8.20;99.90;;;;;;5100690;28;20459;-66
2024/03/30 04:09:25;;;;;;;10.80;9.80;;;8.10;99.90;;;;;;5101150;28;20490;-66
2024/03/30 04:11:52;;;;;;;11.37;9.27;;;8.20;99.90;;;;;;5100579;28;20495;-66
2024/03/30 04:14:18;;;;;;;10.33;8.90;;;8.10;99.90;;;;;;5100621;28;20466;-67
2024/03/30 04:16:45;;;;;;;10.73;9.73;;;8.20;99.90;;;;;;5100796;28;20460;-65
2024/03/30 04:19:17;;;;;;;10.63;9.63;;;8.10;99.90;;;;;;5100688;28;20491;-66
2024/03/30 04:21:45;;;;;;;10.73;9.63;;;8.20;99.90;;;;;;5100781;28;20822;-66
2024/03/30 04:24:12;;;;;;;11.27;8.50;;;8.10;99.90;;;;;;5100414;28;20502;-67
2024/03/30 04:26:40;;;;;;;9.93;8.50;;;8.10;99.90;;;;;;5100411;28;20465;-66
2024/03/30 04:29:06;;;;;;;8.87;7.30;;;8.20;99.90;;;;;;5100406;28;20521;-66
2024/03/30 04:31:33;;;;;;;11.03;7.03;;;8.30;99.90;;;;;;5100818;28;20480;-66
2024/03/30 04:34:00;;;;;;;6.37;4.93;;;8.40;99.90;;;;;;5099983;28;20449;-66
2024/03/30 04:36:27;;;;;;;5.50;5.00;;;8.60;99.90;;;;;;5100513;28;20463;-65
2024/03/30 04:38:55;;;;;;;6.60;5.10;;;8.70;99.90;;;;;;5100240;28;20876;-66
2024/03/30 04:41:23;;;;;;;8.13;5.53;;;8.80;99.90;;;;;;5100378;28;20835;-65
2024/03/30 04:43:51;;;;;;;7.90;4.97;;;8.90;99.90;;;;;;5100014;28;20587;-66
2024/03/30 04:46:17;;;;;;;5.37;4.03;;;8.90;99.90;;;;;;5099956;28;20465;-66
2024/03/30 04:48:47;;;;;;;8.93;4.03;;;8.90;99.90;;;;;;5100141;28;20467;-66
2024/03/30 04:51:13;;;;;;;6.20;4.07;;;9.10;99.90;;;;;;5100164;28;20469;-66
2024/03/30 04:53:41;;;;;;;6.77;4.20;;;9.10;99.90;;;;;;5100078;28;20510;-67
2024/03/30 04:56:07;;;;;;;4.97;3.90;;;9.20;99.90;;;;;;5099891;28;20559;-67
2024/03/30 04:58:36;;;;;;;7.80;3.50;;;9.30;99.90;;;;;;5100044;28;20772;-65
2024/03/30 05:01:04;;;;;;;7.57;3.53;;;9.40;99.90;;;;;;5099833;28;20471;-65
2024/03/30 05:03:32;;;;;;;10.23;3.67;;;9.50;99.90;;;;;;5099218;28;20463;-66
2024/03/30 05:05:58;;;;;;;9.20;3.33;;;9.60;99.90;;;;;;5099702;28;20482;-66
2024/03/30 05:08:25;;;;;;;5.30;3.27;;;9.70;99.90;;;;;;5099881;28;20467;-66
2024/03/30 05:10:52;;;;;;;8.27;3.17;;;9.70;99.90;;;;;;5098992;28;20587;-66
2024/03/30 05:13:19;;;;;;;4.63;3.20;;;9.90;1.00;;;;;;5099257;28;20966;-66
2024/03/30 05:15:47;;;;;;;7.97;3.50;;;9.90;1.00;;;;;;5099576;28;20486;-65
2024/03/30 05:18:15;;;;;;;7.03;3.20;;;9.90;1.00;;;;;;5099285;28;20897;-67
2024/03/30 05:20:49;;;;;;;10.43;4.33;;;9.90;1.00;;;;;;5099334;28;20807;-65
2024/03/30 05:23:19;;;;;;;6.23;2.53;;;10.00;1.00;;;;;;5099559;28;20808;-66
2024/03/30 05:25:46;;;;;;;9.30;3.40;;;10.00;99.90;;;;;;5099643;28;20925;-66
2024/03/30 05:28:14;;;;;;;7.53;3.27;;;10.10;99.90;;;;;;5099261;28;20981;-66
2024/03/30 05:30:40;;;;;;;7.00;3.20;;;10.20;99.90;;;;;;5099050;28;20496;-66
2024/03/30 05:33:09;;;;;;;8.80;3.20;;;10.30;99.90;;;;;;5099464;28;20878;-66
2024/03/30 05:35:36;;;;;;;4.83;2.40;;;10.40;92.40;;;;;;5099215;28;20495;-65
2024/03/30 05:38:03;;;;;;;10.80;3.47;;;10.40;18.90;;;;;;5098863;28;20803;-66
2024/03/30 05:40:32;;;;;;;9.07;2.83;;;10.50;1.00;;;;;;5099077;28;20949;-66
2024/03/30 05:43:00;;;;;;;7.87;3.07;;;10.40;1.00;;;;;;5099003;28;20509;-66
2024/03/30 05:45:26;;;;;;;9.73;3.27;;;10.50;1.00;;;;;;5099320;28;20511;-66
2024/03/30 05:47:53;;;;;;;7.70;3.10;;;10.60;1.00;;;;;;5098580;28;20464;-66
2024/03/30 05:50:21;;;;;;;10.13;3.47;;;10.70;1.00;;;;;;5097251;28;20864;-66
2024/03/30 05:52:49;;;;;;;7.33;2.80;;;10.70;1.00;;;;;;5097182;28;20547;-66
2024/03/30 05:55:15;;;;;;;7.00;3.07;;;10.70;1.00;;;;;;5097629;28;20461;-66
2024/03/30 05:57:43;;;;;;;7.83;2.70;;;10.80;1.00;;;;;;5097212;28;20456;-66
2024/03/30 06:00:11;;;;;;;7.83;2.63;;;10.80;1.00;;;;;;5096807;28;20487;-66
2024/03/30 06:02:38;;;;;;;8.13;3.30;;;10.90;1.00;;;;;;5097513;28;20881;-65
2024/03/30 06:05:05;;;;;;;4.40;3.00;;;11.00;1.00;;;;;;5098740;28;20984;-66
2024/03/30 06:07:33;;;;;;;11.20;4.50;;;11.00;99.90;;;;;;5098624;28;20458;-66
2024/03/30 06:10:00;;;;;;;11.20;3.10;;;11.10;99.90;;;;;;5098707;28;20485;-65
2024/03/30 06:12:27;;;;;;;8.13;2.63;;;11.20;99.90;;;;;;5098584;28;20460;-66
2024/03/30 06:14:54;;;;;;;13.77;3.67;;;11.20;99.90;;;;;;5098534;28;20488;-66
2024/03/30 06:17:21;;;;;;;9.53;3.47;;;11.20;99.90;;;;;;5098061;28;20461;-65
2024/03/30 06:19:47;;;;;;;12.30;3.60;;;11.30;99.90;;;;;;5098443;28;20496;-65
2024/03/30 06:22:14;;;;;;;9.90;4.33;;;11.40;99.90;;;;;;5097361;28;20886;-65
2024/03/30 06:24:42;;;;;;;11.00;4.00;;;11.50;99.90;;;;;;5098223;28;20865;-65
2024/03/30 06:27:10;;;;;;;9.40;3.53;;;11.50;99.90;;;;;;5098553;28;20518;-65
2024/03/30 06:29:38;;;;;;;12.50;4.20;;;11.60;99.90;;;;;;5098194;28;20460;-66
2024/03/30 06:32:06;;;;;;;10.97;4.80;;;11.60;99.90;;;;;;5098230;28;20463;-65
2024/03/30 06:34:33;;;;;;;14.47;5.90;;;11.70;99.90;;;;;;5097841;28;20474;-65
2024/03/30 06:37:00;;;;;;;12.23;5.73;;;11.80;99.90;;;;;;5097889;28;20910;-65
2024/03/30 06:43:40;;;;;;;9.00;4.50;;;12.00;52.50;;;;;;5098368;28;20460;-65
2024/03/30 06:45:01;;;;;;;16.13;5.47;;;12.10;9.70;;;;;;5097579;28;20480;-65
2024/03/30 06:47:28;;;;;;;12.67;5.70;;;12.20;61.70;;;;;;5098307;28;20506;-65
2024/03/30 06:49:56;;;;;;;15.43;4.50;;;12.30;1.00;;;;;;5097317;28;20514;-65
2024/03/30 06:52:22;;;;;;;10.80;4.70;;;12.40;32.30;;;;;;5097921;28;20874;-65
2024/03/30 06:54:49;;;;;;;10.13;4.30;;;12.50;1.00;;;;;;5097957;28;20505;-65
2024/03/30 06:57:17;;;;;;;11.83;3.70;;;12.50;1.00;;;;;;5097960;28;20555;-65
2024/03/30 06:59:46;;;;;;;13.70;4.20;;;12.50;1.00;;;;;;5097754;28;20464;-65
2024/03/30 07:02:12;;;;;;;10.07;3.47;;;12.60;1.00;;;;;;5097274;28;20466;-65
2024/03/30 07:04:39;;;;;;;11.77;3.73;;;12.60;1.00;;;;;;5097096;28;20537;-65
2024/03/30 07:07:06;;;;;;;7.77;3.67;;;12.50;1.00;;;;;;5097472;28;20452;-65
2024/03/30 07:09:33;;;;;;;12.40;3.77;;;12.60;1.00;;;;;;5097747;28;20456;-65
2024/03/30 07:12:00;;;;;;;16.57;4.17;;;12.60;1.00;;;;;;5097310;28;20493;-65
2024/03/30 07:14:28;;;;;;;12.40;4.87;;;12.50;1.00;;;;;;5097623;28;20543;-65
2024/03/30 07:16:55;;;;;;;15.07;5.97;;;12.50;1.00;;;;;;5097458;28;20922;-65
2024/03/30 07:19:23;;;;;;;11.07;5.27;;;12.60;1.00;;;;;;5097767;28;20460;-65
2024/03/30 07:21:49;;;;;;;13.37;3.57;;;12.60;1.00;;;;;;5096759;28;20460;-65
2024/03/30 07:24:18;;;;;;;7.30;3.53;;;12.60;1.00;;;;;;5097342;28;20456;-64
2024/03/30 07:26:44;;;;;;;10.77;5.13;;;12.60;99.90;;;;;;5097235;28;20483;-65
2024/03/30 07:29:12;;;;;;;11.70;6.10;;;12.60;99.90;;;;;;5097592;28;20453;-64
2024/03/30 07:31:40;;;;;;;11.27;6.30;;;12.60;1.00;;;;;;5097221;28;20456;-64
2024/03/30 07:34:07;;;;;;;13.10;4.73;;;12.60;1.00;;;;;;5097540;28;20889;-65
2024/03/30 07:36:35;;;;;;;6.53;3.07;;;12.70;99.90;;;;;;5096882;28;20822;-64
2024/03/30 07:39:02;;;;;;;10.50;3.60;;;12.60;1.00;;;;;;5096202;28;20456;-65
2024/03/30 07:41:28;;;;;;;9.57;2.80;;;12.70;99.90;;;;;;5096222;28;20460;-63
2024/03/30 07:43:56;;;;;;;7.63;3.20;;;12.80;1.00;;;;;;5096626;28;20456;-64
2024/03/30 07:46:22;;;;;;;8.40;3.63;;;12.90;1.00;;;;;;5097080;28;20489;-63
2024/03/30 07:48:51;;;;;;;8.20;3.33;;;12.90;43.60;;;;;;5097324;28;20551;-63
2024/03/30 07:51:17;;;;;;;13.23;3.90;;;12.90;1.00;;;;;;5097081;28;20776;-63
2024/03/30 07:53:44;;;;;;;8.43;3.60;;;13.00;76.20;;;;;;5097477;28;20850;-63
2024/03/30 07:56:11;;;;;;;10.77;2.90;;;13.00;99.90;;;;;;5096681;28;20543;-63
2024/03/30 07:58:38;;;;;;;14.80;5.60;;;13.00;99.90;;;;;;5096951;28;20752;-63
2024/03/30 08:01:06;;;;;;;19.47;10.43;;;13.00;99.90;;;;;;5097332;28;20547;-63
2024/03/30 08:03:33;;;;;;;22.37;12.53;;;13.00;99.90;;;;;;5097432;28;20426;-63
2024/03/30 08:06:01;;;;;;;21.93;12.17;;;13.10;99.90;;;;;;5096965;28;20587;-62
2024/03/30 08:08:28;;;;;;;25.57;15.17;;;13.20;99.90;;;;;;5096448;28;20492;-63
2024/03/30 08:10:55;;;;;;;17.13;9.27;;;13.20;99.90;;;;;;5096704;28;20488;-63
2024/03/30 08:13:22;;;;;;;13.17;4.83;;;13.30;99.90;;;;;;5097595;28;20877;-61
2024/03/30 08:15:48;;;;;;;22.40;6.10;;;13.40;1.00;;;;;;5096929;28;20452;-62
2024/03/30 08:18:16;;;;;;;28.60;13.93;;;13.50;1.00;;;;;;5096890;28;20499;-62
2024/03/30 08:20:42;;;;;;;38.23;22.90;;;13.60;99.90;;;;;;5096915;28;20494;-62
2024/03/30 08:23:11;;;;;;;34.23;19.23;;;13.70;1.00;;;;;;5096909;28;20760;-62
2024/03/30 08:25:37;;;;;;;23.70;14.00;;;13.80;99.90;;;;;;5097007;28;20488;-62
2024/03/30 08:28:05;;;;;;;14.13;6.17;;;13.90;1.00;;;;;;5096861;28;20460;-64
2024/03/30 08:30:31;;;;;;;11.07;4.63;;;14.00;1.00;;;;;;5096777;28;20488;-64
2024/03/30 08:32:58;;;;;;;12.33;4.50;;;14.20;1.00;;;;;;5096937;28;20460;-64
2024/03/30 08:35:25;;;;;;;12.83;4.07;;;14.30;1.00;;;;;;5096823;28;20559;-64
2024/03/30 08:37:52;;;;;;;11.63;4.27;;;14.50;1.00;;;;;;5096267;28;20753;-64
2024/03/30 08:40:20;;;;;;;14.30;4.73;;;14.60;1.00;;;;;;5098632;28;20962;-64
2024/03/30 08:42:47;;;;;;;20.17;5.80;;;14.80;1.00;;;;;;5099003;28;20521;-64
2024/03/30 08:45:14;;;;;;;14.27;4.10;;;14.90;99.90;;;;;;5100097;28;20802;-64
2024/03/30 08:47:41;;;;;;;16.60;4.17;;;15.10;99.90;;;;;;5100493;28;20850;-64
2024/03/30 08:50:08;;;;;;;14.53;4.67;;;15.30;99.90;;;;;;5099585;28;20494;-64
2024/03/30 08:52:35;;;;;;;14.07;4.07;;;15.50;1.00;;;;;;5099814;28;20559;-64
2024/03/30 08:55:02;;;;;;;18.80;4.10;;;15.60;99.90;;;;;;5100047;28;20456;-64
2024/03/30 08:57:31;;;;;;;11.80;4.20;;;15.60;1.00;;;;;;5100379;28;20460;-64
2024/03/30 08:59:57;;;;;;;19.90;4.67;;;15.60;99.90;;;;;;5099997;28;20513;-63
2024/03/30 09:02:26;;;;;;;19.37;4.57;;;15.60;99.90;;;;;;5099684;28;20456;-63
2024/03/30 09:04:52;;;;;;;14.90;5.10;;;15.60;99.90;;;;;;5099646;28;20495;-63
2024/03/30 09:07:20;;;;;;;18.33;4.17;;;15.70;1.00;;;;;;5099968;28;20932;-63
2024/03/30 09:09:46;;;;;;;20.40;4.90;;;15.70;1.00;;;;;;5098962;28;20488;-63
2024/03/30 09:12:14;;;;;;;15.70;4.30;;;15.80;1.00;;;;;;5098329;28;20460;-63
2024/03/30 09:14:42;;;;;;;20.90;4.90;;;16.00;1.00;;;;;;5098470;28;20467;-63
2024/03/30 09:17:09;;;;;;;12.30;4.50;;;16.20;99.90;;;;;;5098897;28;20510;-62
2024/03/30 09:19:36;;;;;;;20.90;5.07;;;16.30;99.90;;;;;;5099096;28;20467;-63
2024/03/30 09:22:03;;;;;;;16.63;4.80;;;16.30;99.90;;;;;;5099317;28;20460;-62
2024/03/30 09:24:30;;;;;;;23.10;5.40;;;16.40;1.00;;;;;;5098952;28;20507;-63
2024/03/30 09:26:58;;;;;;;15.43;5.60;;;16.40;1.00;;;;;;5099548;28;20492;-62
2024/03/30 09:29:24;;;;;;;22.70;4.97;;;16.40;1.00;;;;;;5099721;28;20460;-62
2024/03/30 09:31:53;;;;;;;21.20;5.73;;;16.50;99.90;;;;;;5099750;28;20448;-62
2024/03/30 09:34:19;;;;;;;18.10;4.80;;;16.60;99.90;;;;;;5099201;28;20898;-62
2024/03/30 09:36:47;;;;;;;17.80;4.77;;;16.60;99.90;;;;;;5099389;28;20463;-62
2024/03/30 09:39:13;;;;;;;27.27;5.13;;;16.60;99.90;;;;;;5098776;28;20431;-62
2024/03/30 09:41:50;;;;;;;18.73;4.93;;;16.70;99.90;;;;;;5099611;28;20514;-63
2024/03/30 09:44:17;;;;;;;25.17;4.90;;;16.80;99.90;;;;;;5099015;28;20500;-62
2024/03/30 09:46:46;;;;;;;23.93;6.53;;;16.90;99.90;;;;;;5099166;28;20484;-62
2024/03/30 09:49:15;;;;;;;18.40;5.10;;;17.00;99.90;;;;;;5099024;28;20546;-61
2024/03/30 09:51:46;;;;;;;25.50;6.23;;;17.00;99.90;;;;;;5099206;28;20460;-62
2024/03/30 09:54:12;;;;;;;24.40;5.70;;;17.10;99.90;;;;;;5098200;28;20472;-60
2024/03/30 09:56:45;;;;;;;27.10;6.10;;;17.10;99.90;;;;;;5099046;28;20920;-61
2024/03/30 09:59:13;;;;;;;34.67;5.97;;;17.10;99.90;;;;;;5098950;28;20456;-61
2024/03/30 10:01:40;;;;;;;33.23;6.17;;;17.20;99.90;;;;;;5099028;28;20431;-61
2024/03/30 10:04:07;;;;;;;35.67;6.90;;;17.20;99.90;;;;;;5098511;28;20522;-61
2024/03/30 10:06:44;;;;;;;20.57;5.93;;;17.10;99.90;;;;;;5098729;28;20538;-61
2024/03/30 10:09:14;;;;;;;23.60;5.87;;;17.20;72.20;;;;;;5098946;28;20482;-62
2024/03/30 10:11:44;;;;;;;22.57;6.53;;;17.30;99.90;;;;;;5098224;28;20492;-61
2024/03/30 10:14:17;;;;;;;31.77;7.60;;;17.40;1.00;;;;;;5098391;28;20452;-61
2024/03/30 10:16:46;;;;;;;30.03;6.60;;;17.50;1.00;;;;;;5098820;28;20456;-61
2024/03/30 10:19:15;;;;;;;39.10;8.50;;;17.60;1.00;;;;;;5098159;28;20460;-61
2024/03/30 10:21:45;;;;;;;29.70;7.10;;;17.80;1.00;;;;;;5098859;28;20486;-60
2024/03/30 10:24:12;;;;;;;34.03;10.03;;;17.90;1.00;;;;;;5097937;28;20559;-61
2024/03/30 10:26:41;;;;;;;35.90;8.13;;;17.90;99.90;;;;;;5098263;28;20488;-61
2024/03/30 10:29:08;;;;;;;38.80;8.57;;;17.90;99.90;;;;;;5098498;28;20490;-62
2024/03/30 10:31:38;;;;;;;35.30;8.10;;;17.80;99.90;;;;;;5098360;28;20460;-60
2024/03/30 10:34:04;;;;;;;36.37;7.43;;;17.80;99.90;;;;;;5098344;28;20934;-61
2024/03/30 10:36:32;;;;;;;32.47;6.60;;;17.80;99.90;;;;;;5097985;28;20506;-61
2024/03/30 10:39:00;;;;;;;50.53;9.60;;;17.80;99.90;;;;;;5098123;28;20456;-60
2024/03/30 10:41:28;;;;;;;27.93;7.90;;;17.80;99.90;;;;;;5098513;28;20461;-60
2024/03/30 10:43:54;;;;;;;35.90;7.80;;;17.80;99.90;;;;;;5098161;28;20809;-62
2024/03/30 10:46:21;;;;;;;38.50;8.03;;;17.80;99.90;;;;;;5098070;28;20488;-59
2024/03/30 10:48:47;;;;;;;40.23;7.40;;;17.70;99.90;;;;;;5097882;28;20456;-61
2024/03/30 10:51:15;;;;;;;31.73;7.77;;;17.70;99.90;;;;;;5097829;28;20886;-60
2024/03/30 10:53:41;;;;;;;38.80;7.13;;;17.70;99.90;;;;;;5098095;28;20511;-60
2024/03/30 10:56:11;;;;;;;35.97;8.57;;;17.70;99.90;;;;;;5098048;28;20457;-61
2024/03/30 10:58:38;;;;;;;34.93;7.53;;;17.70;99.90;;;;;;5097794;28;20842;-60
2024/03/30 11:01:06;;;;;;;37.93;7.60;;;17.80;99.90;;;;;;5097861;28;20556;-61
2024/03/30 11:03:32;;;;;;;31.63;6.60;;;17.80;99.90;;;;;;5097487;28;20511;-61
2024/03/30 11:06:00;;;;;;;28.97;7.00;;;17.70;99.90;;;;;;5097301;28;20491;-60
2024/03/30 11:08:27;;;;;;;29.57;7.63;;;17.60;99.90;;;;;;5097239;28;20486;-61
2024/03/30 11:10:56;;;;;;;33.70;8.90;;;17.60;99.90;;;;;;5096977;28;20492;-61
2024/03/30 11:13:24;;;;;;;37.17;8.13;;;17.50;99.90;;;;;;5097833;28;20501;-60
2024/03/30 11:15:53;;;;;;;29.47;7.37;;;17.40;99.90;;;;;;5866034;22;20494;-65
2024/03/30 11:18:27;;;;;;;39.67;8.17;;;17.40;99.90;;;;;;5124347;28;20462;-64
2024/03/30 11:21:01;;;;;;;32.53;8.47;;;17.30;99.90;;;;;;5124808;28;20494;-66
2024/03/30 11:23:39;;;;;;;32.40;7.03;;;17.30;99.90;;;;;;5124229;28;20455;-65
2024/03/30 11:26:09;;;;;;;37.03;9.20;;;17.20;99.90;;;;;;5123934;28;20869;-64
2024/03/30 11:28:45;;;;;;;26.83;7.10;;;17.20;99.90;;;;;;5125392;28;20485;-65
2024/03/30 11:31:21;;;;;;;42.13;7.47;;;17.10;99.90;;;;;;5125381;28;20447;-65
2024/03/30 11:33:58;;;;;;;34.23;6.87;;;17.00;99.90;;;;;;5120481;28;20471;-65
2024/03/30 11:36:34;;;;;;;38.03;7.50;;;16.90;99.90;;;;;;5118121;28;20467;-64
2024/03/30 11:39:14;;;;;;;38.23;8.20;;;16.80;99.90;;;;;;5110701;28;20469;-65
2024/03/30 11:41:43;;;;;;;26.43;7.67;;;16.70;99.90;;;;;;5100135;28;20459;-66
2024/03/30 11:44:17;;;;;;;34.00;6.97;;;16.80;99.90;;;;;;5101060;28;20998;-66
2024/03/30 11:46:45;;;;;;;29.20;7.57;;;16.70;1.00;;;;;;5100521;28;20493;-64
2024/03/30 11:49:14;;;;;;;29.50;6.00;;;16.70;99.90;;;;;;5102441;28;20453;-65
2024/03/30 11:51:41;;;;;;;25.13;7.43;;;16.80;1.00;;;;;;5115283;28;20477;-66
2024/03/30 11:54:22;;;;;;;30.47;7.03;;;16.80;1.00;;;;;;5120264;28;20502;-66
2024/03/30 11:57:01;;;;;;;24.53;7.07;;;16.80;1.00;;;;;;5118703;28;20458;-66
2024/03/30 11:59:36;;;;;;;31.03;7.90;;;16.90;1.00;;;;;;5116611;28;20463;-66
2024/03/30 12:02:02;;;;;;;30.47;8.80;;;16.90;1.00;;;;;;5119192;28;20477;-66
2024/03/30 12:04:34;;;;;;;21.97;6.70;;;16.90;1.00;;;;;;5118152;28;20818;-65
2024/03/30 12:07:00;;;;;;;28.97;7.23;;;16.90;1.00;;;;;;5120281;28;20491;-66
2024/03/30 12:09:28;;;;;;;30.23;7.30;;;16.90;1.00;;;;;;5119814;28;20458;-65
2024/03/30 12:12:10;;;;;;;32.33;7.33;;;16.80;1.00;;;;;;5119222;28;20850;-64
2024/03/30 12:14:40;;;;;;;32.80;8.50;;;16.90;1.00;;;;;;5118958;28;20562;-64
2024/03/30 12:17:07;;;;;;;36.37;8.60;;;16.90;1.00;;;;;;5122555;28;20501;-64
2024/03/30 12:19:36;;;;;;;30.63;7.23;;;16.80;1.00;;;;;;5121035;28;20459;-64
2024/03/30 12:22:02;;;;;;;29.63;7.37;;;16.80;1.00;;;;;;5121255;28;20949;-64
2024/03/30 12:24:31;;;;;;;23.83;7.33;;;16.90;1.00;;;;;;5121582;28;20883;-65
2024/03/30 12:26:57;;;;;;;34.90;6.53;;;16.70;1.00;;;;;;5121860;27;20528;-64
2024/03/30 12:29:25;;;;;;;30.83;7.77;;;16.80;1.00;;;;;;5128977;27;20501;-65
2024/03/30 12:31:54;;;;;;;30.23;7.33;;;16.70;1.00;;;;;;5140547;27;20454;-66
2024/03/30 12:34:22;;;;;;;27.90;7.27;;;16.70;1.00;;;;;;5140954;27;20450;-64
2024/03/30 12:36:49;;;;;;;42.13;7.47;;;16.70;1.00;;;;;;5141557;27;20503;-65
2024/03/30 12:39:17;;;;;;;38.43;8.03;;;16.80;1.00;;;;;;5141944;27;20501;-66
2024/03/30 12:41:44;;;;;;;36.30;7.53;;;16.80;1.00;;;;;;5141462;27;20463;-65
2024/03/30 12:44:11;;;;;;;34.03;8.17;;;16.70;1.00;;;;;;5142315;27;20466;-65
2024/03/30 12:46:38;;;;;;;34.67;8.70;;;16.70;1.00;;;;;;5141290;27;20486;-65
2024/03/30 12:49:07;;;;;;;30.00;8.63;;;16.70;1.00;;;;;;5140186;27;20447;-66
2024/03/30 12:51:34;;;;;;;38.97;8.20;;;16.70;1.00;;;;;;5139777;27;20495;-65
2024/03/30 12:54:03;;;;;;;32.27;9.10;;;16.70;1.00;;;;;;5139149;27;20549;-65
2024/03/30 12:56:31;;;;;;;36.90;7.47;;;16.80;1.00;;;;;;5140221;27;20455;-66